Time;durP1;ratioP1;P1;durP2;ratioP2;P2;SDS_P1;SDS_P2;PMS_P1;PMS_P2;Temp;Humidity;BMP_temperature;BMP_pressure;BME280_temperature;BME280_humidity;BME280_pressure;Samples;Min_cycle;Max_cycle;Signal;HPM_P1;HPM_P2
2021/04/04 00:01:18;;;;;;;34.58;7.60;;;1.20;99.90;;;;;;5017513;28;20065;-77
2021/04/04 00:03:44;;;;;;;36.33;7.93;;;1.10;99.90;;;;;;5017375;28;20045;-77
2021/04/04 00:06:09;;;;;;;36.70;7.22;;;1.10;99.90;;;;;;5016727;28;20482;-77
2021/04/04 00:08:35;;;;;;;30.90;6.57;;;1.00;99.90;;;;;;5017943;28;20041;-77
2021/04/04 00:11:00;;;;;;;35.30;8.55;;;0.90;99.90;;;;;;5016102;28;20450;-77
2021/04/04 00:13:26;;;;;;;33.92;7.35;;;0.80;99.90;;;;;;5018097;28;20045;-77
2021/04/04 00:15:52;;;;;;;37.17;7.18;;;0.80;99.90;;;;;;5017348;28;20155;-77
2021/04/04 00:18:17;;;;;;;35.80;8.43;;;0.80;99.90;;;;;;5016539;28;20026;-77
2021/04/04 00:20:43;;;;;;;48.80;8.02;;;0.70;99.90;;;;;;5015909;28;20120;-77
2021/04/04 00:23:08;;;;;;;44.42;10.55;;;0.80;99.90;;;;;;5017890;28;20033;-77
2021/04/04 00:25:34;;;;;;;39.72;8.95;;;0.80;99.90;;;;;;5016934;28;20402;-77
2021/04/04 00:27:59;;;;;;;50.22;8.90;;;1.00;99.90;;;;;;5016488;28;20030;-77
2021/04/04 00:30:25;;;;;;;57.47;9.77;;;1.20;99.90;;;;;;5015887;28;20025;-77
2021/04/04 00:32:51;;;;;;;58.05;9.43;;;1.30;99.90;;;;;;5017747;28;20049;-76
2021/04/04 00:35:18;;;;;;;33.45;9.32;;;1.40;99.90;;;;;;5015981;28;20026;-77
2021/04/04 00:37:46;;;;;;;58.45;9.55;;;1.50;99.90;;;;;;5016221;28;20032;-77
2021/04/04 00:40:23;;;;;;;49.80;8.93;;;1.60;99.90;;;;;;5017415;28;20026;-76
2021/04/04 00:42:49;;;;;;;39.92;8.38;;;1.70;99.90;;;;;;5017791;28;20026;-76
2021/04/04 00:45:18;;;;;;;59.13;9.85;;;1.80;99.90;;;;;;5017004;28;20052;-77
2021/04/04 00:47:45;;;;;;;58.65;12.63;;;1.90;99.90;;;;;;5013884;28;20056;-77
2021/04/04 00:50:11;;;;;;;51.38;9.85;;;2.10;99.90;;;;;;5014169;28;20112;-77
2021/04/04 00:52:38;;;;;;;34.50;9.40;;;2.20;99.90;;;;;;5013913;28;20033;-77
2021/04/04 00:55:05;;;;;;;39.22;9.38;;;2.20;99.90;;;;;;5013542;28;20049;-77
2021/04/04 00:57:32;;;;;;;62.45;10.13;;;2.30;99.90;;;;;;5012808;28;20486;-77
2021/04/04 00:59:57;;;;;;;52.42;9.57;;;2.30;99.90;;;;;;5013334;28;20034;-77
2021/04/04 01:02:23;;;;;;;43.00;8.23;;;2.40;99.90;;;;;;5013048;28;20448;-77
2021/04/04 01:04:50;;;;;;;41.78;7.57;;;2.50;99.90;;;;;;5013607;28;20041;-77
2021/04/04 01:07:16;;;;;;;42.38;9.13;;;2.60;99.90;;;;;;5013998;28;20367;-77
2021/04/04 01:09:42;;;;;;;52.47;8.73;;;2.70;99.90;;;;;;5013752;28;20030;-77
2021/04/04 01:12:17;;;;;;;40.58;7.53;;;2.70;99.90;;;;;;5013767;28;20034;-77
2021/04/04 01:14:54;;;;;;;29.17;7.78;;;2.80;99.90;;;;;;5013251;28;20414;-77
2021/04/04 01:17:21;;;;;;;33.00;6.78;;;2.80;99.90;;;;;;5014124;28;20022;-77
2021/04/04 01:20:09;;;;;;;46.60;8.25;;;2.90;99.90;;;;;;5011760;28;20029;-78
2021/04/04 01:22:57;;;;;;;36.45;7.53;;;3.00;99.90;;;;;;5012658;28;20026;-77
2021/04/04 01:25:48;;;;;;;42.75;8.68;;;3.00;99.90;;;;;;5004102;28;20542;-77
2021/04/04 01:28:28;;;;;;;33.60;7.57;;;3.00;99.90;;;;;;5012320;28;20022;-77
2021/04/04 01:30:54;;;;;;;36.38;7.88;;;3.10;99.90;;;;;;5013109;28;20058;-77
2021/04/04 01:33:23;;;;;;;42.67;7.18;;;3.20;99.90;;;;;;5013674;28;20022;-76
2021/04/04 01:35:53;;;;;;;42.38;7.38;;;3.30;99.90;;;;;;5011526;28;20052;-77
2021/04/04 01:38:25;;;;;;;52.38;9.18;;;3.30;99.90;;;;;;5012155;28;20486;-77
2021/04/04 01:41:14;;;;;;;41.88;7.38;;;3.30;99.90;;;;;;5013350;28;20079;-77
2021/04/04 01:43:43;;;;;;;57.88;9.88;;;3.40;99.90;;;;;;5008163;28;20038;-76
2021/04/04 01:46:11;;;;;;;47.15;7.88;;;3.40;99.90;;;;;;5013508;28;20026;-77
2021/04/04 01:48:38;;;;;;;40.95;7.38;;;3.40;99.90;;;;;;5013294;28;20069;-77
2021/04/04 01:51:04;;;;;;;46.25;6.32;;;3.50;99.90;;;;;;5012876;28;20030;-76
2021/04/04 01:53:31;;;;;;;44.63;8.07;;;3.60;99.90;;;;;;5012125;28;20022;-77
2021/04/04 01:55:58;;;;;;;43.85;7.38;;;3.60;99.90;;;;;;5010769;28;20524;-77
2021/04/04 01:58:25;;;;;;;44.33;7.80;;;3.70;99.90;;;;;;5011558;28;20030;-77
2021/04/04 02:00:50;;;;;;;45.63;6.85;;;3.70;99.90;;;;;;5013083;28;20037;-77
2021/04/04 02:03:16;;;;;;;61.45;8.00;;;3.70;99.90;;;;;;5011875;28;20034;-77
2021/04/04 02:05:43;;;;;;;51.25;7.47;;;3.80;99.90;;;;;;5012304;28;20032;-77
2021/04/04 02:08:11;;;;;;;56.38;9.85;;;3.80;99.90;;;;;;5013058;28;20036;-77
2021/04/04 02:10:38;;;;;;;52.05;7.45;;;3.80;99.90;;;;;;5011299;28;20113;-77
2021/04/04 02:13:05;;;;;;;58.33;8.27;;;3.80;99.90;;;;;;5011269;28;20022;-77
2021/04/04 02:15:33;;;;;;;45.40;8.80;;;3.80;99.90;;;;;;5011049;28;20050;-77
2021/04/04 02:18:00;;;;;;;37.35;6.30;;;3.80;99.90;;;;;;5012762;28;20033;-77
2021/04/04 02:20:29;;;;;;;29.40;6.97;;;3.80;99.90;;;;;;5012259;28;20540;-77
2021/04/04 02:22:56;;;;;;;27.38;5.45;;;3.90;99.90;;;;;;5011537;28;20057;-77
2021/04/04 02:25:22;;;;;;;36.05;6.57;;;3.90;99.90;;;;;;5010549;28;20026;-77
2021/04/04 02:27:47;;;;;;;37.97;6.22;;;3.90;99.90;;;;;;5011169;28;20037;-77
2021/04/04 02:30:16;;;;;;;35.95;5.72;;;4.00;99.90;;;;;;5011160;28;20022;-77
2021/04/04 02:32:50;;;;;;;33.55;7.05;;;4.00;99.90;;;;;;5012537;28;20022;-77
2021/04/04 02:35:23;;;;;;;41.20;6.68;;;4.00;99.90;;;;;;5011805;28;20172;-77
2021/04/04 02:37:49;;;;;;;41.45;5.97;;;4.00;99.90;;;;;;5011147;28;20027;-77
2021/04/04 02:40:16;;;;;;;37.80;4.68;;;4.10;99.90;;;;;;5010989;28;20033;-78
2021/04/04 02:42:45;;;;;;;35.25;5.95;;;4.00;99.90;;;;;;5010935;28;20030;-77
2021/04/04 02:45:12;;;;;;;32.80;5.03;;;4.10;99.90;;;;;;5011707;28;20053;-78
2021/04/04 02:48:01;;;;;;;35.05;5.88;;;4.20;99.90;;;;;;5011049;28;20037;-77
2021/04/04 02:50:27;;;;;;;31.65;6.30;;;4.20;99.90;;;;;;5011280;28;20677;-77
2021/04/04 02:52:57;;;;;;;35.95;6.07;;;4.20;99.90;;;;;;5012364;28;20442;-77
2021/04/04 02:55:24;;;;;;;28.90;5.38;;;4.20;99.90;;;;;;5011301;28;20034;-77
2021/04/04 02:57:53;;;;;;;42.63;6.47;;;4.20;99.90;;;;;;5012203;28;20022;-77
2021/04/04 03:00:20;;;;;;;25.50;5.38;;;4.30;99.90;;;;;;5010294;28;20029;-78
2021/04/04 03:02:46;;;;;;;43.15;6.07;;;4.30;99.90;;;;;;5010758;28;20033;-77
2021/04/04 03:05:11;;;;;;;33.30;5.45;;;4.30;99.90;;;;;;5011501;28;20038;-78
2021/04/04 03:07:44;;;;;;;29.50;5.38;;;4.40;99.90;;;;;;5012028;28;20030;-77
2021/04/04 03:10:11;;;;;;;57.08;14.93;;;4.40;99.90;;;;;;5010008;28;20038;-77
2021/04/04 03:12:38;;;;;;;63.15;18.17;;;4.50;99.90;;;;;;5010513;28;20081;-77
2021/04/04 03:15:10;;;;;;;77.32;17.27;;;4.50;99.90;;;;;;5010115;28;20026;-77
2021/04/04 03:17:39;;;;;;;60.33;16.33;;;4.50;99.90;;;;;;5010705;28;20486;-77
2021/04/04 03:20:07;;;;;;;61.40;20.73;;;4.50;99.90;;;;;;5011684;28;20113;-78
2021/04/04 03:22:35;;;;;;;79.25;22.58;;;4.50;99.90;;;;;;5011683;28;20026;-77
2021/04/04 03:25:01;;;;;;;42.63;14.35;;;4.50;99.90;;;;;;5010945;28;20105;-77
2021/04/04 03:27:27;;;;;;;51.47;10.32;;;4.60;99.90;;;;;;5011854;28;20108;-77
2021/04/04 03:29:53;;;;;;;44.08;9.57;;;4.60;99.90;;;;;;5010159;28;20084;-77
2021/04/04 03:32:19;;;;;;;34.60;8.35;;;4.60;99.90;;;;;;5010190;28;20034;-78
2021/04/04 03:34:45;;;;;;;34.08;7.90;;;4.60;99.90;;;;;;5009893;28;20033;-77
2021/04/04 03:37:11;;;;;;;43.20;8.98;;;4.70;99.90;;;;;;5010435;28;20025;-77
2021/04/04 03:39:37;;;;;;;52.20;9.65;;;4.70;99.90;;;;;;5011488;28;20487;-78
2021/04/04 03:42:03;;;;;;;36.83;9.63;;;4.70;99.90;;;;;;5011812;28;20053;-77
2021/04/04 03:44:32;;;;;;;36.33;8.93;;;4.70;99.90;;;;;;5009662;28;20544;-77
2021/04/04 03:47:00;;;;;;;44.17;11.25;;;4.70;99.90;;;;;;5011647;28;20026;-77
2021/04/04 03:49:27;;;;;;;48.78;11.88;;;4.70;99.90;;;;;;5011254;28;20638;-77
2021/04/04 03:51:55;;;;;;;54.47;11.00;;;4.80;99.90;;;;;;5011592;28;20049;-77
2021/04/04 03:54:22;;;;;;;42.00;11.68;;;4.90;99.90;;;;;;5009385;28;20359;-78
2021/04/04 03:56:49;;;;;;;50.92;12.82;;;4.90;99.90;;;;;;5010299;28;20030;-77
2021/04/04 03:59:17;;;;;;;46.15;13.48;;;4.90;99.90;;;;;;5010162;28;20026;-77
2021/04/04 04:01:47;;;;;;;46.35;13.75;;;4.90;99.90;;;;;;5010756;28;20022;-77
2021/04/04 04:04:14;;;;;;;44.97;13.25;;;4.90;99.90;;;;;;5009637;28;20041;-77
2021/04/04 04:06:42;;;;;;;51.05;14.68;;;5.00;99.90;;;;;;5010210;28;20665;-77
2021/04/04 04:09:09;;;;;;;44.33;13.32;;;5.00;99.90;;;;;;5009956;28;20034;-77
2021/04/04 04:11:40;;;;;;;49.80;13.60;;;5.00;99.90;;;;;;5011182;28;20053;-77
2021/04/04 04:14:08;;;;;;;36.22;12.15;;;5.10;99.90;;;;;;5010835;28;20541;-77
2021/04/04 04:16:36;;;;;;;45.25;13.65;;;5.10;99.90;;;;;;5011458;28;20033;-77
2021/04/04 04:19:03;;;;;;;50.97;13.07;;;5.00;99.90;;;;;;5009946;28;20026;-77
2021/04/04 04:21:31;;;;;;;34.30;12.10;;;5.10;99.90;;;;;;5011074;28;20029;-77
2021/04/04 04:23:58;;;;;;;42.20;11.20;;;5.10;99.90;;;;;;5013976;28;20133;-77
2021/04/04 04:26:24;;;;;;;40.83;10.80;;;5.10;99.90;;;;;;5013665;28;20042;-77
2021/04/04 04:28:50;;;;;;;38.05;11.23;;;5.10;99.90;;;;;;5013667;28;20025;-77
2021/04/04 04:31:23;;;;;;;40.38;11.68;;;5.10;99.90;;;;;;5014540;28;20029;-77
2021/04/04 04:33:52;;;;;;;35.20;10.07;;;5.10;99.90;;;;;;5014309;28;20111;-77
2021/04/04 04:36:20;;;;;;;41.15;11.55;;;5.10;99.90;;;;;;5014854;28;20383;-77
2021/04/04 04:38:46;;;;;;;38.72;10.35;;;5.10;99.90;;;;;;5013429;28;20498;-77
2021/04/04 04:41:14;;;;;;;42.08;10.55;;;5.20;99.90;;;;;;5012850;28;20057;-77
2021/04/04 04:43:51;;;;;;;35.30;8.70;;;5.10;99.90;;;;;;5014225;28;20038;-77
2021/04/04 04:46:17;;;;;;;31.77;8.50;;;5.10;99.90;;;;;;5014685;28;20025;-77
2021/04/04 04:48:43;;;;;;;28.38;8.52;;;5.10;99.90;;;;;;5014545;28;20041;-77
2021/04/04 04:51:10;;;;;;;43.90;8.00;;;5.10;99.90;;;;;;5014045;28;20053;-77
2021/04/04 04:53:37;;;;;;;28.75;7.97;;;5.10;99.90;;;;;;5013006;28;20029;-77
2021/04/04 04:56:03;;;;;;;30.98;8.98;;;5.10;99.90;;;;;;5013656;28;20466;-77
2021/04/04 04:58:30;;;;;;;29.83;8.57;;;5.20;99.90;;;;;;5014281;28;20104;-77
2021/04/04 05:01:02;;;;;;;32.58;8.60;;;5.20;99.90;;;;;;5014408;28;20026;-77
2021/04/04 05:03:28;;;;;;;34.00;9.00;;;5.20;99.90;;;;;;5012976;28;20040;-77
2021/04/04 05:05:57;;;;;;;25.50;7.75;;;5.20;99.90;;;;;;5011650;28;20038;-77
2021/04/04 05:08:23;;;;;;;39.20;8.98;;;5.20;99.90;;;;;;5014176;28;20022;-77
2021/04/04 05:10:50;;;;;;;37.72;8.27;;;5.10;99.90;;;;;;5012595;28;20034;-77
2021/04/04 05:13:17;;;;;;;26.77;7.53;;;5.20;99.90;;;;;;5014124;28;20018;-77
2021/04/04 05:15:47;;;;;;;39.30;7.60;;;5.20;99.90;;;;;;5013239;28;20060;-77
2021/04/04 05:18:13;;;;;;;39.92;7.38;;;5.10;99.90;;;;;;5013752;28;20422;-77
2021/04/04 05:20:39;;;;;;;38.10;7.40;;;5.10;99.90;;;;;;5013976;28;20030;-77
2021/04/04 05:23:05;;;;;;;34.60;7.75;;;5.20;99.90;;;;;;5014028;28;20119;-77
2021/04/04 05:25:31;;;;;;;37.75;8.43;;;5.10;99.90;;;;;;5012827;28;20025;-77
2021/04/04 05:27:57;;;;;;;23.92;6.25;;;5.20;99.90;;;;;;5012570;28;20034;-78
2021/04/04 05:30:25;;;;;;;42.90;9.95;;;5.20;99.90;;;;;;5013880;28;20398;-76
2021/04/04 05:32:51;;;;;;;41.80;7.38;;;5.20;99.90;;;;;;5013155;28;20860;-76
2021/04/04 05:35:19;;;;;;;34.70;5.72;;;5.30;99.90;;;;;;5011555;28;20030;-76
2021/04/04 05:37:45;;;;;;;29.60;7.40;;;5.30;99.90;;;;;;5013411;28;20025;-77
2021/04/04 05:40:21;;;;;;;29.08;6.78;;;5.30;99.90;;;;;;5013509;28;20425;-76
2021/04/04 05:43:05;;;;;;;30.35;6.82;;;5.30;99.90;;;;;;5013737;28;20509;-76
2021/04/04 05:45:40;;;;;;;22.70;5.70;;;5.30;99.90;;;;;;5012570;28;20045;-77
2021/04/04 05:48:14;;;;;;;26.45;4.82;;;5.40;99.90;;;;;;5013372;28;20406;-76
2021/04/04 05:51:04;;;;;;;25.38;5.95;;;5.40;99.90;;;;;;5012195;28;20041;-77
2021/04/04 05:53:44;;;;;;;36.97;5.60;;;5.40;99.90;;;;;;5012118;28;20494;-76
2021/04/04 05:56:24;;;;;;;33.88;7.55;;;5.40;99.90;;;;;;5011572;28;20033;-77
2021/04/04 05:59:04;;;;;;;24.05;5.57;;;5.40;99.90;;;;;;5013298;28;20036;-78
2021/04/04 06:02:00;;;;;;;23.70;4.57;;;5.50;99.90;;;;;;5013168;28;20405;-77
2021/04/04 06:04:44;;;;;;;29.73;5.07;;;5.50;99.90;;;;;;5011367;28;20033;-76
2021/04/04 06:07:40;;;;;;;28.48;5.18;;;5.60;99.90;;;;;;5000744;28;20141;-76
2021/04/04 06:10:12;;;;;;;19.75;3.90;;;5.60;99.90;;;;;;5017838;28;20061;-77
2021/04/04 06:12:59;;;;;;;24.95;4.05;;;5.60;99.90;;;;;;5012987;28;20026;-77
2021/04/04 06:15:57;;;;;;;26.88;5.47;;;5.60;99.90;;;;;;5012376;28;20018;-77
2021/04/04 06:18:55;;;;;;;26.17;3.95;;;5.70;99.90;;;;;;5011051;28;20536;-77
2021/04/04 06:21:29;;;;;;;15.52;4.65;;;5.70;99.90;;;;;;5011668;28;20068;-77
2021/04/04 06:23:57;;;;;;;;;;;5.80;99.90;;;;;;5011396;28;20038;-77
2021/04/04 06:26:35;;;;;;;16.27;3.33;;;5.80;99.90;;;;;;5012434;28;19909;-77
2021/04/04 06:29:22;;;;;;;22.15;3.92;;;5.80;99.90;;;;;;5011379;28;20500;-77
2021/04/04 06:31:53;;;;;;;28.73;3.75;;;5.80;99.90;;;;;;5011412;28;20565;-77
2021/04/04 06:34:32;;;;;;;18.52;3.15;;;5.80;99.90;;;;;;5011799;28;20044;-77
2021/04/04 06:37:11;;;;;;;20.65;4.13;;;5.90;99.90;;;;;;4991852;28;20034;-77
2021/04/04 06:39:48;;;;;;;24.52;3.58;;;5.90;99.90;;;;;;4996930;28;20026;-77
2021/04/04 06:42:21;;;;;;;21.58;3.72;;;5.90;99.90;;;;;;5011182;28;20063;-76
2021/04/04 06:45:10;;;;;;;44.80;5.10;;;5.90;99.90;;;;;;5010633;28;20033;-77
2021/04/04 06:47:54;;;;;;;29.25;4.88;;;5.90;99.90;;;;;;5012233;28;20060;-77
2021/04/04 06:50:22;;;;;;;26.20;3.38;;;5.90;99.90;;;;;;5012090;28;20030;-77
2021/04/04 06:53:21;;;;;;;23.08;4.25;;;5.90;99.90;;;;;;5011131;28;20407;-77
2021/04/04 06:56:12;;;;;;;29.50;3.65;;;6.00;99.90;;;;;;5009715;28;20036;-77
2021/04/04 06:58:43;;;;;;;26.50;4.65;;;6.00;99.90;;;;;;5012323;28;20028;-77
2021/04/04 07:01:32;;;;;;;26.58;3.65;;;6.10;99.90;;;;;;5010583;28;20033;-77
2021/04/04 07:04:25;;;;;;;19.77;3.92;;;6.10;99.90;;;;;;5009843;28;20025;-77
2021/04/04 07:07:28;;;;;;;35.08;3.88;;;6.10;99.90;;;;;;5007427;28;20521;-77
2021/04/04 07:10:15;;;;;;;35.90;4.00;;;6.10;99.90;;;;;;4928552;28;20147;-78
2021/04/04 07:13:12;;;;;;;28.92;4.45;;;6.10;99.90;;;;;;4992213;28;20037;-77
2021/04/04 07:16:02;;;;;;;23.80;3.13;;;6.20;99.90;;;;;;4998203;28;20394;-77
2021/04/04 07:18:59;;;;;;;25.65;4.05;;;6.10;99.90;;;;;;5027000;28;20022;-77
2021/04/04 07:21:39;;;;;;;19.33;3.33;;;6.20;99.90;;;;;;5012002;28;20037;-77
2021/04/04 07:24:23;;;;;;;18.70;4.03;;;6.30;99.90;;;;;;5010687;28;20018;-77
2021/04/04 07:27:07;;;;;;;19.42;3.70;;;6.30;99.90;;;;;;5011480;28;20029;-77
2021/04/04 07:29:45;;;;;;;21.27;3.17;;;6.30;99.90;;;;;;5010308;28;20087;-77
2021/04/04 07:32:30;;;;;;;16.70;3.50;;;6.40;99.90;;;;;;5010479;28;20084;-78
2021/04/04 07:35:10;;;;;;;20.33;3.22;;;6.30;99.90;;;;;;5010890;28;20030;-78
2021/04/04 07:38:12;;;;;;;26.02;3.70;;;6.40;99.90;;;;;;5010267;28;20026;-78
2021/04/04 07:41:03;;;;;;;23.80;3.28;;;6.40;99.90;;;;;;5007503;28;20414;-77
2021/04/04 07:43:45;;;;;;;17.90;3.38;;;6.40;99.90;;;;;;5010364;28;20030;-77
2021/04/04 07:46:18;;;;;;;14.15;3.03;;;6.40;99.90;;;;;;5011288;28;20101;-77
2021/04/04 07:49:14;;;;;;;17.83;3.80;;;6.40;99.90;;;;;;5011482;28;20038;-78
2021/04/04 07:51:46;;;;;;;26.30;3.92;;;6.40;99.90;;;;;;5011476;28;20040;-77
2021/04/04 07:54:22;;;;;;;21.60;3.33;;;6.40;99.90;;;;;;5009285;28;20069;-77
2021/04/04 07:56:57;;;;;;;15.23;2.65;;;6.40;99.90;;;;;;5013798;28;20033;-76
2021/04/04 07:59:31;;;;;;;17.38;2.92;;;6.40;99.90;;;;;;5015604;28;20034;-76
2021/04/04 08:02:09;;;;;;;13.25;2.85;;;6.40;99.90;;;;;;5015535;28;20030;-76
2021/04/04 08:04:42;;;;;;;23.92;3.55;;;6.40;99.90;;;;;;5012847;28;20498;-76
2021/04/04 08:07:23;;;;;;;22.23;2.90;;;6.40;99.90;;;;;;5015411;28;20037;-76
2021/04/04 08:10:07;;;;;;;19.00;2.72;;;6.40;99.90;;;;;;5013113;28;20040;-76
2021/04/04 08:12:49;;;;;;;13.45;2.55;;;6.30;99.90;;;;;;5013811;28;20018;-76
2021/04/04 08:15:24;;;;;;;21.83;2.90;;;6.30;99.90;;;;;;5013979;28;20029;-76
2021/04/04 08:17:49;;;;;;;14.20;2.88;;;6.30;99.90;;;;;;5015110;28;20022;-77
2021/04/04 08:20:47;;;;;;;21.10;3.40;;;6.30;99.90;;;;;;5013720;28;20076;-76
2021/04/04 08:23:31;;;;;;;18.33;4.10;;;6.30;99.90;;;;;;5013801;28;20061;-76
2021/04/04 08:26:01;;;;;;;19.60;2.65;;;6.50;99.90;;;;;;5012665;28;20533;-76
2021/04/04 08:28:29;;;;;;;19.15;3.35;;;6.50;99.90;;;;;;4994098;28;20113;-77
2021/04/04 08:30:59;;;;;;;23.65;3.10;;;6.60;99.90;;;;;;4995231;28;20030;-77
2021/04/04 08:33:34;;;;;;;23.60;3.25;;;6.60;99.90;;;;;;4994194;28;20031;-77
2021/04/04 08:36:02;;;;;;;22.27;3.58;;;6.50;99.90;;;;;;5023271;28;20053;-77
2021/04/04 08:38:31;;;;;;;20.42;3.95;;;6.50;99.90;;;;;;5007347;28;20239;-77
2021/04/04 08:40:59;;;;;;;27.88;3.65;;;6.40;99.90;;;;;;5009387;28;20072;-77
2021/04/04 08:43:26;;;;;;;18.15;3.22;;;6.60;99.90;;;;;;5009225;28;20120;-76
2021/04/04 08:46:18;;;;;;;27.58;3.35;;;6.80;99.90;;;;;;5007839;28;20045;-77
2021/04/04 08:48:44;;;;;;;30.90;3.50;;;7.00;99.90;;;;;;5005689;28;20030;-78
2021/04/04 08:51:13;;;;;;;16.98;3.28;;;7.00;99.90;;;;;;5009325;28;20398;-78
2021/04/04 08:53:41;;;;;;;16.92;2.85;;;7.00;99.90;;;;;;5006650;28;20053;-77
2021/04/04 08:56:08;;;;;;;10.68;1.90;;;6.80;99.90;;;;;;5008112;28;20095;-78
2021/04/04 08:58:39;;;;;;;16.40;2.78;;;6.80;99.90;;;;;;5008304;28;20056;-78
2021/04/04 09:01:21;;;;;;;12.75;1.88;;;6.70;99.90;;;;;;5001107;28;20022;-78
2021/04/04 09:03:54;;;;;;;10.80;1.50;;;6.80;99.90;;;;;;5009540;28;20025;-76
2021/04/04 09:06:20;;;;;;;16.55;2.10;;;6.90;99.90;;;;;;5008312;28;20502;-77
2021/04/04 09:08:46;;;;;;;3.40;1.50;;;7.10;99.90;;;;;;5007487;28;20092;-77
2021/04/04 09:11:13;;;;;;;13.52;2.28;;;7.10;99.90;;;;;;5007657;28;20454;-78
2021/04/04 09:13:39;;;;;;;3.58;1.10;;;7.00;99.90;;;;;;5008157;28;20092;-77
2021/04/04 09:16:13;;;;;;;9.50;1.10;;;7.10;99.90;;;;;;5013876;28;20026;-77
2021/04/04 09:18:53;;;;;;;4.05;1.08;;;7.10;99.90;;;;;;5012700;28;20522;-77
2021/04/04 09:21:21;;;;;;;8.65;1.85;;;7.00;99.90;;;;;;5013713;28;20034;-77
2021/04/04 09:23:52;;;;;;;11.88;1.63;;;6.90;99.90;;;;;;5012301;28;20036;-77
2021/04/04 09:26:24;;;;;;;10.80;1.85;;;6.70;99.90;;;;;;5013553;28;20581;-78
2021/04/04 09:28:51;;;;;;;4.05;1.63;;;6.70;99.90;;;;;;5012391;28;20149;-78
2021/04/04 09:31:21;;;;;;;11.73;2.03;;;6.70;99.90;;;;;;5012696;28;20494;-79
2021/04/04 09:34:01;;;;;;;7.30;1.52;;;6.90;99.90;;;;;;5010424;28;20049;-80
2021/04/04 09:36:45;;;;;;;8.57;1.25;;;7.20;99.90;;;;;;5003573;28;20026;-78
2021/04/04 09:39:22;;;;;;;4.13;1.40;;;7.10;99.90;;;;;;5012381;28;20030;-77
2021/04/04 09:41:49;;;;;;;4.97;1.50;;;7.20;99.90;;;;;;4993006;28;20073;-77
2021/04/04 09:44:15;;;;;;;6.55;1.38;;;7.20;99.90;;;;;;5007450;28;20122;-77
2021/04/04 09:46:54;;;;;;;5.55;1.35;;;7.40;99.90;;;;;;5013391;28;20168;-77
2021/04/04 09:49:36;;;;;;;7.43;1.55;;;7.50;99.90;;;;;;5012175;28;20045;-78
2021/04/04 09:52:24;;;;;;;11.23;1.60;;;7.60;99.90;;;;;;5012119;28;20092;-77
2021/04/04 09:55:10;;;;;;;5.93;1.02;;;7.70;99.90;;;;;;5011377;28;20109;-77
2021/04/04 09:57:44;;;;;;;3.58;1.00;;;7.40;99.90;;;;;;5013300;28;20026;-79
2021/04/04 10:00:23;;;;;;;3.22;0.90;;;7.40;99.90;;;;;;5013195;28;20030;-77
2021/04/04 10:02:50;;;;;;;3.92;0.80;;;7.60;99.90;;;;;;5011909;28;20033;-79
2021/04/04 10:05:32;;;;;;;3.53;1.00;;;7.90;99.90;;;;;;5011308;28;20040;-78
2021/04/04 10:08:14;;;;;;;2.70;0.57;;;7.90;99.90;;;;;;5012297;28;20026;-77
2021/04/04 10:10:43;;;;;;;8.27;1.73;;;7.90;99.90;;;;;;5012954;28;20030;-77
2021/04/04 10:13:08;;;;;;;4.55;0.90;;;7.90;99.90;;;;;;5010941;28;20030;-78
2021/04/04 10:15:40;;;;;;;11.15;1.10;;;8.20;99.90;;;;;;4992948;28;20030;-78
2021/04/04 10:18:06;;;;;;;7.30;1.17;;;8.50;99.90;;;;;;4998157;28;20021;-77
2021/04/04 10:20:34;;;;;;;5.65;1.05;;;8.50;99.90;;;;;;5012925;28;20125;-78
2021/04/04 10:23:01;;;;;;;6.88;1.67;;;8.30;99.90;;;;;;5012706;28;20053;-78
2021/04/04 10:25:26;;;;;;;3.33;1.00;;;8.00;99.90;;;;;;5011855;28;20083;-79
2021/04/04 10:28:09;;;;;;;9.65;1.02;;;7.80;99.90;;;;;;5012563;28;20049;-78
2021/04/04 10:30:37;;;;;;;3.47;0.95;;;7.80;99.90;;;;;;5011486;28;20040;-78
2021/04/04 10:33:23;;;;;;;8.50;0.82;;;8.10;99.90;;;;;;5011340;28;20490;-78
2021/04/04 10:35:49;;;;;;;3.17;0.90;;;8.20;99.90;;;;;;5010211;28;20041;-78
2021/04/04 10:38:19;;;;;;;5.65;0.95;;;8.20;99.90;;;;;;5011388;28;20026;-78
2021/04/04 10:40:44;;;;;;;8.88;1.10;;;8.20;99.90;;;;;;5011406;28;20022;-79
2021/04/04 10:43:12;;;;;;;3.33;1.05;;;8.00;99.90;;;;;;5011437;28;20034;-79
2021/04/04 10:46:01;;;;;;;2.15;0.73;;;7.80;99.90;;;;;;5011791;28;20029;-79
2021/04/04 10:48:29;;;;;;;3.72;0.95;;;7.70;99.90;;;;;;5012501;28;20030;-76
2021/04/04 10:50:55;;;;;;;4.13;1.40;;;7.70;99.90;;;;;;5011836;28;20093;-77
2021/04/04 10:53:21;;;;;;;7.80;1.02;;;7.70;99.90;;;;;;5012339;28;20101;-79
2021/04/04 10:55:48;;;;;;;3.50;1.35;;;7.70;99.90;;;;;;5011603;28;20481;-79
2021/04/04 10:58:25;;;;;;;3.10;1.50;;;7.70;99.90;;;;;;5011004;28;20441;-79
2021/04/04 11:00:50;;;;;;;6.65;1.10;;;7.70;99.90;;;;;;5012272;28;20022;-79
2021/04/04 11:03:16;;;;;;;4.35;1.08;;;7.70;99.90;;;;;;5012141;28;20036;-78
2021/04/04 11:05:42;;;;;;;2.88;1.27;;;7.50;99.90;;;;;;5011583;28;20787;-81
2021/04/04 11:08:08;;;;;;;5.45;1.23;;;7.40;99.90;;;;;;5010744;28;20053;-77
2021/04/04 11:10:34;;;;;;;6.00;1.40;;;7.60;99.90;;;;;;5012259;28;20017;-77
2021/04/04 11:13:01;;;;;;;5.70;1.10;;;7.70;99.90;;;;;;5012122;28;20111;-78
2021/04/04 11:15:30;;;;;;;11.25;1.65;;;8.00;99.90;;;;;;5010229;28;20026;-78
2021/04/04 11:17:57;;;;;;;9.48;1.35;;;8.20;99.90;;;;;;5012111;28;20076;-77
2021/04/04 11:20:23;;;;;;;3.63;0.77;;;8.20;99.90;;;;;;5011803;28;20096;-78
2021/04/04 11:22:50;;;;;;;4.10;1.20;;;8.10;99.90;;;;;;5011752;28;20030;-78
2021/04/04 11:25:17;;;;;;;7.25;1.83;;;8.10;99.90;;;;;;5011226;28;20036;-78
2021/04/04 11:27:48;;;;;;;2.92;0.85;;;8.20;99.90;;;;;;5026994;28;20022;-78
2021/04/04 11:30:16;;;;;;;3.15;0.70;;;8.40;99.90;;;;;;5026744;28;20402;-78
2021/04/04 11:32:46;;;;;;;0.73;0.60;;;8.70;99.90;;;;;;5011805;28;20025;-78
2021/04/04 11:35:14;;;;;;;2.20;0.60;;;8.70;99.90;;;;;;5009746;28;20105;-78
2021/04/04 11:37:44;;;;;;;2.88;0.77;;;8.90;99.90;;;;;;5026733;28;20022;-78
2021/04/04 11:40:25;;;;;;;5.25;0.90;;;9.00;99.90;;;;;;5010495;28;20509;-78
2021/04/04 11:43:12;;;;;;;3.88;0.70;;;8.80;99.90;;;;;;5011815;28;20033;-78
2021/04/04 11:45:38;;;;;;;6.38;0.75;;;8.60;99.90;;;;;;5026078;28;20036;-78
2021/04/04 11:48:33;;;;;;;1.05;0.75;;;8.70;99.90;;;;;;5011487;28;20030;-79
2021/04/04 11:51:10;;;;;;;4.88;1.60;;;8.70;99.90;;;;;;5011548;28;20141;-78
2021/04/04 11:53:47;;;;;;;5.13;0.90;;;8.70;99.90;;;;;;5026582;28;20022;-78
2021/04/04 11:56:42;;;;;;;9.48;1.27;;;8.50;99.90;;;;;;5011588;28;20077;-79
2021/04/04 11:59:07;;;;;;;4.55;1.60;;;8.30;99.90;;;;;;5011397;28;20018;-78
2021/04/04 12:01:33;;;;;;;8.25;1.65;;;8.40;99.90;;;;;;5010324;28;20048;-79
2021/04/04 12:04:31;;;;;;;5.72;1.15;;;8.40;99.90;;;;;;5010848;28;20038;-78
2021/04/04 12:07:07;;;;;;;1.85;0.90;;;8.30;99.90;;;;;;5000227;28;20495;-78
2021/04/04 12:09:34;;;;;;;3.40;0.82;;;8.30;99.90;;;;;;5026579;28;20053;-79
2021/04/04 12:12:01;;;;;;;6.35;2.05;;;8.40;99.90;;;;;;5011507;28;20390;-78
2021/04/04 12:14:27;;;;;;;7.15;1.80;;;8.40;99.90;;;;;;5010812;28;20064;-79
2021/04/04 12:16:53;;;;;;;12.18;1.42;;;8.50;99.90;;;;;;5011334;28;20018;-79
2021/04/04 12:19:26;;;;;;;4.60;1.20;;;8.40;99.90;;;;;;5011269;28;20056;-80
2021/04/04 12:21:52;;;;;;;;;;;8.30;99.90;;;;;;5011262;28;20034;-78
2021/04/04 12:24:18;;;;;;;17.13;1.77;;;8.20;99.90;;;;;;5010595;28;20360;-78
2021/04/04 12:26:44;;;;;;;6.50;1.60;;;8.10;99.90;;;;;;5026475;28;20109;-77
2021/04/04 12:29:09;;;;;;;8.52;2.58;;;7.80;99.90;;;;;;5010360;28;20097;-78
2021/04/04 12:31:40;;;;;;;5.00;1.60;;;7.70;99.90;;;;;;5010798;28;20037;-78
2021/04/04 12:34:06;;;;;;;9.85;1.85;;;7.70;99.90;;;;;;5010625;28;20029;-79
2021/04/04 12:36:41;;;;;;;10.05;2.20;;;7.70;99.90;;;;;;5009989;28;20060;-78
2021/04/04 12:39:07;;;;;;;7.43;2.40;;;7.70;99.90;;;;;;5010844;28;20426;-79
2021/04/04 12:41:32;;;;;;;7.40;1.80;;;7.70;99.90;;;;;;5010014;28;20022;-76
2021/04/04 12:43:58;;;;;;;9.95;1.67;;;7.70;99.90;;;;;;5012348;28;20951;-76
2021/04/04 12:46:30;;;;;;;10.65;2.08;;;7.60;99.90;;;;;;5014753;28;20048;-77
2021/04/04 12:48:56;;;;;;;2.70;1.20;;;7.60;99.90;;;;;;5014388;28;20030;-76
2021/04/04 12:51:21;;;;;;;5.28;1.40;;;7.40;99.90;;;;;;5014266;28;20124;-76
2021/04/04 12:53:48;;;;;;;6.55;1.77;;;7.40;99.90;;;;;;5013886;28;20026;-76
2021/04/04 12:56:14;;;;;;;7.93;2.17;;;7.40;99.90;;;;;;5012981;28;20025;-77
2021/04/04 12:58:41;;;;;;;5.63;1.60;;;7.50;99.90;;;;;;5014330;28;20026;-77
2021/04/04 13:01:13;;;;;;;7.25;1.60;;;7.50;99.90;;;;;;5014003;28;20026;-76
2021/04/04 13:03:39;;;;;;;8.82;1.60;;;7.60;99.90;;;;;;5012701;28;20038;-76
2021/04/04 13:06:05;;;;;;;3.55;2.00;;;7.70;99.90;;;;;;5013838;28;20108;-77
2021/04/04 13:08:32;;;;;;;4.70;1.40;;;7.70;99.90;;;;;;5014366;28;20069;-77
2021/04/04 13:11:07;;;;;;;3.72;1.17;;;7.70;99.90;;;;;;5012804;28;20026;-77
2021/04/04 13:13:34;;;;;;;3.33;1.00;;;7.60;99.90;;;;;;5014221;28;20049;-77